sensor_id;sensor_type;location;lat;lon;timestamp;P1;durP1;ratioP1;P2;durP2;ratioP2
13250;SDS011;6692;50.710;7.180;2022-08-05T00:00:35;1022.43;;;951.17;;
13250;SDS011;6692;50.710;7.180;2022-08-05T00:02:36;1016.17;;;944.67;;
13250;SDS011;6692;50.710;7.180;2022-08-05T00:04:37;1004.93;;;935.57;;
13250;SDS011;6692;50.710;7.180;2022-08-05T00:06:38;995.67;;;928.43;;
13250;SDS011;6692;50.710;7.180;2022-08-05T00:08:38;988.27;;;921.70;;
13250;SDS011;6692;50.710;7.180;2022-08-05T00:10:39;1000.10;;;931.33;;
13250;SDS011;6692;50.710;7.180;2022-08-05T00:12:39;992.70;;;924.53;;
13250;SDS011;6692;50.710;7.180;2022-08-05T00:14:40;987.63;;;921.10;;
13250;SDS011;6692;50.710;7.180;2022-08-05T00:16:41;995.40;;;928.53;;
13250;SDS011;6692;50.710;7.180;2022-08-05T00:18:43;1014.10;;;943.63;;
13250;SDS011;6692;50.710;7.180;2022-08-05T00:20:43;991.13;;;923.53;;
13250;SDS011;6692;50.710;7.180;2022-08-05T00:22:44;1003.60;;;934.33;;
13250;SDS011;6692;50.710;7.180;2022-08-05T00:24:45;988.27;;;921.37;;
13250;SDS011;6692;50.710;7.180;2022-08-05T00:26:46;989.80;;;922.73;;
13250;SDS011;6692;50.710;7.180;2022-08-05T00:28:48;993.10;;;927.07;;
13250;SDS011;6692;50.710;7.180;2022-08-05T00:30:48;1001.80;;;934.33;;
13250;SDS011;6692;50.710;7.180;2022-08-05T00:32:49;983.47;;;917.87;;
13250;SDS011;6692;50.710;7.180;2022-08-05T00:34:49;991.93;;;926.17;;
13250;SDS011;6692;50.710;7.180;2022-08-05T00:36:50;992.10;;;924.90;;
13250;SDS011;6692;50.710;7.180;2022-08-05T00:38:50;1006.67;;;937.70;;
13250;SDS011;6692;50.710;7.180;2022-08-05T00:40:54;1003.90;;;936.13;;
13250;SDS011;6692;50.710;7.180;2022-08-05T00:42:53;985.87;;;920.63;;
13250;SDS011;6692;50.710;7.180;2022-08-05T00:44:53;977.20;;;912.83;;
13250;SDS011;6692;50.710;7.180;2022-08-05T00:46:54;987.50;;;921.27;;
13250;SDS011;6692;50.710;7.180;2022-08-05T00:48:55;971.83;;;907.97;;
13250;SDS011;6692;50.710;7.180;2022-08-05T00:50:56;992.73;;;926.33;;
13250;SDS011;6692;50.710;7.180;2022-08-05T00:52:57;986.80;;;920.37;;
13250;SDS011;6692;50.710;7.180;2022-08-05T00:54:57;968.97;;;905.40;;
13250;SDS011;6692;50.710;7.180;2022-08-05T00:56:58;973.80;;;909.03;;
13250;SDS011;6692;50.710;7.180;2022-08-05T00:58:59;974.87;;;910.83;;
13250;SDS011;6692;50.710;7.180;2022-08-05T01:01:00;965.30;;;902.20;;
13250;SDS011;6692;50.710;7.180;2022-08-05T01:03:01;983.37;;;918.93;;
13250;SDS011;6692;50.710;7.180;2022-08-05T01:05:02;984.60;;;920.00;;
13250;SDS011;6692;50.710;7.180;2022-08-05T01:07:03;989.77;;;923.73;;
13250;SDS011;6692;50.710;7.180;2022-08-05T01:09:05;971.93;;;908.40;;
13250;SDS011;6692;50.710;7.180;2022-08-05T01:11:08;965.87;;;902.43;;
13250;SDS011;6692;50.710;7.180;2022-08-05T01:13:09;959.03;;;896.60;;
13250;SDS011;6692;50.710;7.180;2022-08-05T01:15:09;982.63;;;918.00;;
13250;SDS011;6692;50.710;7.180;2022-08-05T01:17:11;967.67;;;904.17;;
13250;SDS011;6692;50.710;7.180;2022-08-05T01:19:22;964.77;;;901.90;;
13250;SDS011;6692;50.710;7.180;2022-08-05T01:21:19;966.90;;;903.97;;
13250;SDS011;6692;50.710;7.180;2022-08-05T01:23:24;970.50;;;907.67;;
13250;SDS011;6692;50.710;7.180;2022-08-05T01:25:29;960.00;;;897.87;;
13250;SDS011;6692;50.710;7.180;2022-08-05T01:29:58;943.50;;;884.13;;
13250;SDS011;6692;50.710;7.180;2022-08-05T01:31:59;950.80;;;889.30;;
13250;SDS011;6692;50.710;7.180;2022-08-05T01:34:02;971.37;;;907.87;;
13250;SDS011;6692;50.710;7.180;2022-08-05T01:36:05;959.43;;;896.93;;
13250;SDS011;6692;50.710;7.180;2022-08-05T01:38:05;972.90;;;908.80;;
13250;SDS011;6692;50.710;7.180;2022-08-05T01:40:07;971.67;;;908.20;;
13250;SDS011;6692;50.710;7.180;2022-08-05T01:42:08;960.13;;;897.83;;
13250;SDS011;6692;50.710;7.180;2022-08-05T01:44:09;964.43;;;901.47;;
13250;SDS011;6692;50.710;7.180;2022-08-05T01:46:10;965.27;;;902.93;;
13250;SDS011;6692;50.710;7.180;2022-08-05T01:48:10;965.93;;;903.20;;
13250;SDS011;6692;50.710;7.180;2022-08-05T01:50:15;959.23;;;896.47;;
13250;SDS011;6692;50.710;7.180;2022-08-05T01:52:14;966.10;;;903.47;;
13250;SDS011;6692;50.710;7.180;2022-08-05T01:54:15;962.90;;;900.13;;
13250;SDS011;6692;50.710;7.180;2022-08-05T01:56:15;971.13;;;907.90;;
13250;SDS011;6692;50.710;7.180;2022-08-05T01:58:16;969.57;;;907.33;;
13250;SDS011;6692;50.710;7.180;2022-08-05T02:00:17;959.67;;;898.67;;
13250;SDS011;6692;50.710;7.180;2022-08-05T02:02:18;956.57;;;894.33;;
13250;SDS011;6692;50.710;7.180;2022-08-05T02:04:18;951.17;;;890.13;;
13250;SDS011;6692;50.710;7.180;2022-08-05T02:06:18;956.07;;;894.07;;
13250;SDS011;6692;50.710;7.180;2022-08-05T02:08:19;961.83;;;899.57;;
13250;SDS011;6692;50.710;7.180;2022-08-05T02:10:20;962.97;;;900.70;;
13250;SDS011;6692;50.710;7.180;2022-08-05T02:12:26;953.43;;;891.73;;
13250;SDS011;6692;50.710;7.180;2022-08-05T02:14:32;948.47;;;888.00;;
13250;SDS011;6692;50.710;7.180;2022-08-05T02:16:35;939.67;;;880.60;;
13250;SDS011;6692;50.710;7.180;2022-08-05T02:18:37;916.87;;;860.47;;
13250;SDS011;6692;50.710;7.180;2022-08-05T02:20:42;923.47;;;866.43;;
13250;SDS011;6692;50.710;7.180;2022-08-05T02:22:41;903.07;;;847.90;;
13250;SDS011;6692;50.710;7.180;2022-08-05T02:24:40;908.47;;;853.30;;
13250;SDS011;6692;50.710;7.180;2022-08-05T02:26:45;885.43;;;834.20;;
13250;SDS011;6692;50.710;7.180;2022-08-05T02:28:42;845.37;;;798.30;;
13250;SDS011;6692;50.710;7.180;2022-08-05T02:30:44;812.83;;;769.10;;
13250;SDS011;6692;50.710;7.180;2022-08-05T02:32:46;784.63;;;742.53;;
13250;SDS011;6692;50.710;7.180;2022-08-05T02:34:45;810.17;;;766.33;;
13250;SDS011;6692;50.710;7.180;2022-08-05T02:36:49;740.03;;;702.57;;
13250;SDS011;6692;50.710;7.180;2022-08-05T02:38:48;691.83;;;659.00;;
13250;SDS011;6692;50.710;7.180;2022-08-05T02:40:49;719.87;;;685.07;;
13250;SDS011;6692;50.710;7.180;2022-08-05T02:42:49;669.57;;;638.40;;
13250;SDS011;6692;50.710;7.180;2022-08-05T02:44:50;668.47;;;637.67;;
13250;SDS011;6692;50.710;7.180;2022-08-05T02:46:51;689.00;;;656.77;;
13250;SDS011;6692;50.710;7.180;2022-08-05T02:48:52;685.07;;;653.10;;
13250;SDS011;6692;50.710;7.180;2022-08-05T02:50:53;682.77;;;650.67;;
13250;SDS011;6692;50.710;7.180;2022-08-05T02:52:53;689.07;;;656.53;;
13250;SDS011;6692;50.710;7.180;2022-08-05T02:54:54;662.07;;;631.47;;
13250;SDS011;6692;50.710;7.180;2022-08-05T02:56:55;693.23;;;660.73;;
13250;SDS011;6692;50.710;7.180;2022-08-05T02:58:56;692.13;;;659.23;;
13250;SDS011;6692;50.710;7.180;2022-08-05T03:00:58;651.33;;;621.30;;
13250;SDS011;6692;50.710;7.180;2022-08-05T03:02:57;652.90;;;623.37;;
13250;SDS011;6692;50.710;7.180;2022-08-05T03:04:57;699.80;;;666.40;;
13250;SDS011;6692;50.710;7.180;2022-08-05T03:06:58;688.43;;;655.53;;
13250;SDS011;6692;50.710;7.180;2022-08-05T03:08:59;709.97;;;675.63;;
13250;SDS011;6692;50.710;7.180;2022-08-05T03:10:59;769.77;;;729.53;;
13250;SDS011;6692;50.710;7.180;2022-08-05T03:13:00;794.07;;;751.43;;
13250;SDS011;6692;50.710;7.180;2022-08-05T03:15:02;771.23;;;730.97;;
13250;SDS011;6692;50.710;7.180;2022-08-05T03:17:01;803.80;;;760.20;;
13250;SDS011;6692;50.710;7.180;2022-08-05T03:19:03;806.20;;;762.13;;
13250;SDS011;6692;50.710;7.180;2022-08-05T03:21:03;848.23;;;799.50;;
13250;SDS011;6692;50.710;7.180;2022-08-05T03:23:04;838.67;;;790.83;;
13250;SDS011;6692;50.710;7.180;2022-08-05T03:25:05;826.60;;;780.50;;
13250;SDS011;6692;50.710;7.180;2022-08-05T03:27:06;817.93;;;772.30;;
13250;SDS011;6692;50.710;7.180;2022-08-05T03:29:07;837.97;;;790.17;;
13250;SDS011;6692;50.710;7.180;2022-08-05T03:31:07;833.40;;;787.00;;
13250;SDS011;6692;50.710;7.180;2022-08-05T03:33:08;827.80;;;781.87;;
13250;SDS011;6692;50.710;7.180;2022-08-05T03:35:09;831.17;;;785.43;;
13250;SDS011;6692;50.710;7.180;2022-08-05T03:37:09;808.07;;;763.60;;
13250;SDS011;6692;50.710;7.180;2022-08-05T03:39:10;840.87;;;792.77;;
13250;SDS011;6692;50.710;7.180;2022-08-05T03:41:11;823.53;;;777.33;;
13250;SDS011;6692;50.710;7.180;2022-08-05T03:43:11;809.67;;;764.70;;
13250;SDS011;6692;50.710;7.180;2022-08-05T03:45:12;823.77;;;778.03;;
13250;SDS011;6692;50.710;7.180;2022-08-05T03:47:12;833.77;;;787.37;;
13250;SDS011;6692;50.710;7.180;2022-08-05T03:49:13;820.80;;;775.20;;
13250;SDS011;6692;50.710;7.180;2022-08-05T03:51:16;830.10;;;783.77;;
13250;SDS011;6692;50.710;7.180;2022-08-05T03:53:18;829.03;;;782.43;;
13250;SDS011;6692;50.710;7.180;2022-08-05T03:55:34;809.00;;;765.00;;
13250;SDS011;6692;50.710;7.180;2022-08-05T03:57:34;844.27;;;796.60;;
13250;SDS011;6692;50.710;7.180;2022-08-05T03:59:40;848.37;;;799.57;;
13250;SDS011;6692;50.710;7.180;2022-08-05T04:01:41;841.47;;;792.90;;
13250;SDS011;6692;50.710;7.180;2022-08-05T04:03:41;878.37;;;825.77;;
13250;SDS011;6692;50.710;7.180;2022-08-05T04:05:42;880.93;;;828.77;;
13250;SDS011;6692;50.710;7.180;2022-08-05T04:07:42;901.50;;;846.57;;
13250;SDS011;6692;50.710;7.180;2022-08-05T04:09:43;895.67;;;841.13;;
13250;SDS011;6692;50.710;7.180;2022-08-05T04:11:44;904.50;;;848.87;;
13250;SDS011;6692;50.710;7.180;2022-08-05T04:13:45;902.67;;;847.27;;
13250;SDS011;6692;50.710;7.180;2022-08-05T04:15:46;905.30;;;849.50;;
13250;SDS011;6692;50.710;7.180;2022-08-05T04:17:46;920.40;;;862.80;;
13250;SDS011;6692;50.710;7.180;2022-08-05T04:19:47;927.87;;;869.10;;
13250;SDS011;6692;50.710;7.180;2022-08-05T04:21:48;924.07;;;865.70;;
13250;SDS011;6692;50.710;7.180;2022-08-05T04:23:48;936.93;;;877.27;;
13250;SDS011;6692;50.710;7.180;2022-08-05T04:25:49;933.20;;;873.60;;
13250;SDS011;6692;50.710;7.180;2022-08-05T04:27:49;939.70;;;879.57;;
13250;SDS011;6692;50.710;7.180;2022-08-05T04:29:50;935.83;;;876.50;;
13250;SDS011;6692;50.710;7.180;2022-08-05T04:31:51;934.77;;;875.30;;
13250;SDS011;6692;50.710;7.180;2022-08-05T04:33:52;936.17;;;876.50;;
13250;SDS011;6692;50.710;7.180;2022-08-05T04:35:53;936.13;;;876.33;;
13250;SDS011;6692;50.710;7.180;2022-08-05T04:37:54;954.23;;;892.67;;
13250;SDS011;6692;50.710;7.180;2022-08-05T04:39:55;961.10;;;898.33;;
13250;SDS011;6692;50.710;7.180;2022-08-05T04:41:55;960.30;;;898.00;;
13250;SDS011;6692;50.710;7.180;2022-08-05T04:43:56;975.07;;;910.53;;
13250;SDS011;6692;50.710;7.180;2022-08-05T04:45:57;955.17;;;892.87;;
13250;SDS011;6692;50.710;7.180;2022-08-05T04:48:03;966.70;;;904.17;;
13250;SDS011;6692;50.710;7.180;2022-08-05T04:50:03;958.90;;;896.37;;
13250;SDS011;6692;50.710;7.180;2022-08-05T04:52:05;947.83;;;886.93;;
13250;SDS011;6692;50.710;7.180;2022-08-05T04:54:06;960.83;;;898.13;;
13250;SDS011;6692;50.710;7.180;2022-08-05T04:56:06;958.10;;;896.70;;
13250;SDS011;6692;50.710;7.180;2022-08-05T04:58:10;954.97;;;893.83;;
13250;SDS011;6692;50.710;7.180;2022-08-05T05:00:10;956.50;;;894.90;;
13250;SDS011;6692;50.710;7.180;2022-08-05T05:02:11;953.80;;;892.17;;
13250;SDS011;6692;50.710;7.180;2022-08-05T05:04:13;966.40;;;903.43;;
13250;SDS011;6692;50.710;7.180;2022-08-05T05:06:13;988.53;;;922.00;;
13250;SDS011;6692;50.710;7.180;2022-08-05T05:08:14;980.63;;;915.20;;
13250;SDS011;6692;50.710;7.180;2022-08-05T05:10:15;966.23;;;903.17;;
13250;SDS011;6692;50.710;7.180;2022-08-05T05:12:17;911.60;;;855.07;;
13250;SDS011;6692;50.710;7.180;2022-08-05T05:14:17;888.20;;;834.80;;
13250;SDS011;6692;50.710;7.180;2022-08-05T05:16:18;899.83;;;845.33;;
13250;SDS011;6692;50.710;7.180;2022-08-05T05:18:19;910.80;;;855.40;;
13250;SDS011;6692;50.710;7.180;2022-08-05T05:20:19;880.53;;;826.50;;
13250;SDS011;6692;50.710;7.180;2022-08-05T05:22:21;893.97;;;839.23;;
13250;SDS011;6692;50.710;7.180;2022-08-05T05:24:21;915.77;;;859.33;;
13250;SDS011;6692;50.710;7.180;2022-08-05T05:26:22;925.13;;;865.93;;
13250;SDS011;6692;50.710;7.180;2022-08-05T05:28:23;930.23;;;871.50;;
13250;SDS011;6692;50.710;7.180;2022-08-05T05:30:24;912.67;;;855.87;;
13250;SDS011;6692;50.710;7.180;2022-08-05T05:32:25;954.47;;;892.57;;
13250;SDS011;6692;50.710;7.180;2022-08-05T05:34:25;950.70;;;889.20;;
13250;SDS011;6692;50.710;7.180;2022-08-05T05:36:27;941.80;;;881.53;;
13250;SDS011;6692;50.710;7.180;2022-08-05T05:38:27;945.87;;;885.77;;
13250;SDS011;6692;50.710;7.180;2022-08-05T05:40:28;934.50;;;876.10;;
13250;SDS011;6692;50.710;7.180;2022-08-05T05:42:29;932.93;;;875.10;;
13250;SDS011;6692;50.710;7.180;2022-08-05T05:44:29;926.07;;;868.00;;
13250;SDS011;6692;50.710;7.180;2022-08-05T05:46:30;918.03;;;861.17;;
13250;SDS011;6692;50.710;7.180;2022-08-05T05:48:31;916.30;;;859.80;;
13250;SDS011;6692;50.710;7.180;2022-08-05T05:50:31;935.13;;;875.73;;
13250;SDS011;6692;50.710;7.180;2022-08-05T05:52:32;936.80;;;877.60;;
13250;SDS011;6692;50.710;7.180;2022-08-05T05:54:33;916.33;;;859.77;;
13250;SDS011;6692;50.710;7.180;2022-08-05T05:56:33;909.93;;;854.13;;
13250;SDS011;6692;50.710;7.180;2022-08-05T05:58:34;918.77;;;862.07;;
13250;SDS011;6692;50.710;7.180;2022-08-05T06:00:35;897.30;;;843.10;;
13250;SDS011;6692;50.710;7.180;2022-08-05T06:02:37;920.10;;;863.23;;
13250;SDS011;6692;50.710;7.180;2022-08-05T06:04:38;903.63;;;848.27;;
13250;SDS011;6692;50.710;7.180;2022-08-05T06:06:40;893.57;;;839.50;;
13250;SDS011;6692;50.710;7.180;2022-08-05T06:08:40;893.20;;;839.53;;
13250;SDS011;6692;50.710;7.180;2022-08-05T06:10:41;897.63;;;843.47;;
13250;SDS011;6692;50.710;7.180;2022-08-05T06:12:41;905.37;;;850.03;;
13250;SDS011;6692;50.710;7.180;2022-08-05T06:14:42;927.90;;;868.73;;
13250;SDS011;6692;50.710;7.180;2022-08-05T06:16:43;945.43;;;885.00;;
13250;SDS011;6692;50.710;7.180;2022-08-05T06:18:43;966.60;;;903.57;;
13250;SDS011;6692;50.710;7.180;2022-08-05T06:20:44;980.03;;;914.77;;
13250;SDS011;6692;50.710;7.180;2022-08-05T06:22:44;984.33;;;919.17;;
13250;SDS011;6692;50.710;7.180;2022-08-05T06:24:45;980.83;;;915.43;;
13250;SDS011;6692;50.710;7.180;2022-08-05T06:26:46;962.70;;;900.50;;
13250;SDS011;6692;50.710;7.180;2022-08-05T06:28:47;948.20;;;887.00;;
13250;SDS011;6692;50.710;7.180;2022-08-05T06:30:48;970.10;;;907.53;;
13250;SDS011;6692;50.710;7.180;2022-08-05T06:32:48;920.80;;;864.00;;
13250;SDS011;6692;50.710;7.180;2022-08-05T06:34:49;956.70;;;894.17;;
13250;SDS011;6692;50.710;7.180;2022-08-05T06:36:50;958.10;;;895.93;;
13250;SDS011;6692;50.710;7.180;2022-08-05T06:38:50;948.57;;;887.30;;
13250;SDS011;6692;50.710;7.180;2022-08-05T06:40:51;959.30;;;897.13;;
13250;SDS011;6692;50.710;7.180;2022-08-05T06:42:52;942.40;;;881.83;;
13250;SDS011;6692;50.710;7.180;2022-08-05T06:44:52;960.13;;;896.77;;
13250;SDS011;6692;50.710;7.180;2022-08-05T06:46:53;975.23;;;909.90;;
13250;SDS011;6692;50.710;7.180;2022-08-05T06:48:53;921.30;;;864.00;;
13250;SDS011;6692;50.710;7.180;2022-08-05T06:50:54;917.37;;;858.97;;
13250;SDS011;6692;50.710;7.180;2022-08-05T06:52:55;918.90;;;861.67;;
13250;SDS011;6692;50.710;7.180;2022-08-05T06:54:55;944.33;;;883.00;;
13250;SDS011;6692;50.710;7.180;2022-08-05T06:56:56;947.70;;;887.20;;
13250;SDS011;6692;50.710;7.180;2022-08-05T06:58:57;922.17;;;863.30;;
13250;SDS011;6692;50.710;7.180;2022-08-05T07:00:58;912.57;;;855.97;;
13250;SDS011;6692;50.710;7.180;2022-08-05T07:02:59;886.30;;;832.77;;
13250;SDS011;6692;50.710;7.180;2022-08-05T07:05:00;903.57;;;848.43;;
13250;SDS011;6692;50.710;7.180;2022-08-05T07:07:01;873.87;;;822.07;;
13250;SDS011;6692;50.710;7.180;2022-08-05T07:09:02;882.43;;;829.00;;
13250;SDS011;6692;50.710;7.180;2022-08-05T07:11:03;878.30;;;825.40;;
13250;SDS011;6692;50.710;7.180;2022-08-05T07:13:03;869.37;;;817.13;;
13250;SDS011;6692;50.710;7.180;2022-08-05T07:15:11;892.93;;;839.07;;
13250;SDS011;6692;50.710;7.180;2022-08-05T07:17:18;877.77;;;825.13;;
13250;SDS011;6692;50.710;7.180;2022-08-05T07:19:19;885.43;;;831.53;;
13250;SDS011;6692;50.710;7.180;2022-08-05T07:21:19;881.07;;;827.87;;
13250;SDS011;6692;50.710;7.180;2022-08-05T07:23:20;877.20;;;824.33;;
13250;SDS011;6692;50.710;7.180;2022-08-05T07:25:21;887.53;;;833.77;;
13250;SDS011;6692;50.710;7.180;2022-08-05T07:27:21;881.83;;;829.00;;
13250;SDS011;6692;50.710;7.180;2022-08-05T07:29:22;862.03;;;811.23;;
13250;SDS011;6692;50.710;7.180;2022-08-05T07:31:23;852.40;;;802.83;;
13250;SDS011;6692;50.710;7.180;2022-08-05T07:33:23;878.07;;;825.30;;
13250;SDS011;6692;50.710;7.180;2022-08-05T07:35:24;859.93;;;809.33;;
13250;SDS011;6692;50.710;7.180;2022-08-05T07:37:25;847.37;;;797.43;;
13250;SDS011;6692;50.710;7.180;2022-08-05T07:39:26;841.23;;;792.33;;
13250;SDS011;6692;50.710;7.180;2022-08-05T07:41:27;811.03;;;765.93;;
13250;SDS011;6692;50.710;7.180;2022-08-05T07:43:27;832.40;;;784.33;;
13250;SDS011;6692;50.710;7.180;2022-08-05T07:45:29;833.70;;;786.00;;
13250;SDS011;6692;50.710;7.180;2022-08-05T07:47:30;849.77;;;800.97;;
13250;SDS011;6692;50.710;7.180;2022-08-05T07:49:31;816.90;;;771.30;;
13250;SDS011;6692;50.710;7.180;2022-08-05T07:51:32;828.37;;;781.10;;
13250;SDS011;6692;50.710;7.180;2022-08-05T07:53:32;823.57;;;777.07;;
13250;SDS011;6692;50.710;7.180;2022-08-05T07:55:33;810.63;;;764.50;;
13250;SDS011;6692;50.710;7.180;2022-08-05T07:57:34;803.07;;;758.30;;
13250;SDS011;6692;50.710;7.180;2022-08-05T07:59:34;831.93;;;784.30;;
13250;SDS011;6692;50.710;7.180;2022-08-05T08:01:35;817.40;;;771.30;;
13250;SDS011;6692;50.710;7.180;2022-08-05T08:03:35;819.80;;;773.60;;
13250;SDS011;6692;50.710;7.180;2022-08-05T08:05:37;832.70;;;785.10;;
13250;SDS011;6692;50.710;7.180;2022-08-05T08:07:37;771.50;;;729.83;;
13250;SDS011;6692;50.710;7.180;2022-08-05T08:09:38;770.00;;;729.20;;
13250;SDS011;6692;50.710;7.180;2022-08-05T08:11:39;808.13;;;762.83;;
13250;SDS011;6692;50.710;7.180;2022-08-05T08:13:40;801.07;;;757.13;;
13250;SDS011;6692;50.710;7.180;2022-08-05T08:15:40;798.17;;;754.33;;
13250;SDS011;6692;50.710;7.180;2022-08-05T08:17:43;821.20;;;774.30;;
13250;SDS011;6692;50.710;7.180;2022-08-05T08:19:43;789.77;;;747.20;;
13250;SDS011;6692;50.710;7.180;2022-08-05T08:21:44;777.40;;;736.27;;
13250;SDS011;6692;50.710;7.180;2022-08-05T08:23:44;794.60;;;750.87;;
13250;SDS011;6692;50.710;7.180;2022-08-05T08:25:45;788.20;;;744.83;;
13250;SDS011;6692;50.710;7.180;2022-08-05T08:27:46;772.30;;;731.33;;
13250;SDS011;6692;50.710;7.180;2022-08-05T08:29:47;806.60;;;761.90;;
13250;SDS011;6692;50.710;7.180;2022-08-05T08:31:48;814.80;;;769.00;;
13250;SDS011;6692;50.710;7.180;2022-08-05T08:33:48;787.03;;;745.27;;
13250;SDS011;6692;50.710;7.180;2022-08-05T08:35:49;773.80;;;732.40;;
13250;SDS011;6692;50.710;7.180;2022-08-05T08:37:50;771.23;;;729.83;;
13250;SDS011;6692;50.710;7.180;2022-08-05T08:39:50;780.07;;;738.43;;
13250;SDS011;6692;50.710;7.180;2022-08-05T08:41:51;790.00;;;747.27;;
13250;SDS011;6692;50.710;7.180;2022-08-05T08:43:52;773.73;;;732.20;;
13250;SDS011;6692;50.710;7.180;2022-08-05T08:45:52;730.67;;;693.27;;
13250;SDS011;6692;50.710;7.180;2022-08-05T08:47:53;759.67;;;720.37;;
13250;SDS011;6692;50.710;7.180;2022-08-05T08:49:54;777.53;;;735.93;;
13250;SDS011;6692;50.710;7.180;2022-08-05T08:51:58;787.53;;;743.83;;
13250;SDS011;6692;50.710;7.180;2022-08-05T08:53:59;743.60;;;704.77;;
13250;SDS011;6692;50.710;7.180;2022-08-05T08:56:01;722.70;;;685.93;;
13250;SDS011;6692;50.710;7.180;2022-08-05T08:58:01;710.27;;;674.77;;
13250;SDS011;6692;50.710;7.180;2022-08-05T09:00:02;746.03;;;706.53;;
13250;SDS011;6692;50.710;7.180;2022-08-05T09:02:03;777.13;;;734.50;;
13250;SDS011;6692;50.710;7.180;2022-08-05T09:04:03;744.93;;;705.77;;
13250;SDS011;6692;50.710;7.180;2022-08-05T09:06:04;751.57;;;711.80;;
13250;SDS011;6692;50.710;7.180;2022-08-05T09:08:05;797.63;;;753.30;;
13250;SDS011;6692;50.710;7.180;2022-08-05T09:10:06;802.73;;;759.37;;
13250;SDS011;6692;50.710;7.180;2022-08-05T09:12:07;787.57;;;744.93;;
13250;SDS011;6692;50.710;7.180;2022-08-05T09:14:10;751.90;;;711.77;;
13250;SDS011;6692;50.710;7.180;2022-08-05T09:16:11;800.27;;;756.30;;
13250;SDS011;6692;50.710;7.180;2022-08-05T09:18:11;802.30;;;757.87;;
13250;SDS011;6692;50.710;7.180;2022-08-05T09:20:12;760.90;;;719.60;;
13250;SDS011;6692;50.710;7.180;2022-08-05T09:22:12;774.57;;;733.57;;
13250;SDS011;6692;50.710;7.180;2022-08-05T09:24:13;744.47;;;705.87;;
13250;SDS011;6692;50.710;7.180;2022-08-05T09:26:13;817.27;;;770.00;;
13250;SDS011;6692;50.710;7.180;2022-08-05T09:28:17;750.23;;;710.37;;
13250;SDS011;6692;50.710;7.180;2022-08-05T09:30:17;730.07;;;692.67;;
13250;SDS011;6692;50.710;7.180;2022-08-05T09:32:17;712.50;;;676.40;;
13250;SDS011;6692;50.710;7.180;2022-08-05T09:34:18;716.13;;;679.93;;
13250;SDS011;6692;50.710;7.180;2022-08-05T09:36:19;814.10;;;768.97;;
13250;SDS011;6692;50.710;7.180;2022-08-05T09:38:19;709.73;;;673.60;;
13250;SDS011;6692;50.710;7.180;2022-08-05T09:42:37;706.57;;;670.57;;
13250;SDS011;6692;50.710;7.180;2022-08-05T09:44:38;708.47;;;672.03;;
13250;SDS011;6692;50.710;7.180;2022-08-05T09:46:40;709.20;;;673.03;;
13250;SDS011;6692;50.710;7.180;2022-08-05T09:48:41;733.80;;;695.40;;
13250;SDS011;6692;50.710;7.180;2022-08-05T09:50:42;729.90;;;692.00;;
13250;SDS011;6692;50.710;7.180;2022-08-05T09:52:42;714.30;;;677.53;;
13250;SDS011;6692;50.710;7.180;2022-08-05T09:56:55;692.10;;;657.20;;
13250;SDS011;6692;50.710;7.180;2022-08-05T09:58:56;744.93;;;705.83;;
13250;SDS011;6692;50.710;7.180;2022-08-05T10:01:03;702.43;;;666.23;;
13250;SDS011;6692;50.710;7.180;2022-08-05T10:03:08;710.60;;;674.07;;
13250;SDS011;6692;50.710;7.180;2022-08-05T10:05:17;701.67;;;665.77;;
13250;SDS011;6692;50.710;7.180;2022-08-05T10:07:19;690.83;;;655.33;;
13250;SDS011;6692;50.710;7.180;2022-08-05T10:09:20;735.50;;;697.53;;
13250;SDS011;6692;50.710;7.180;2022-08-05T10:11:20;698.17;;;662.57;;
13250;SDS011;6692;50.710;7.180;2022-08-05T10:13:25;712.00;;;675.40;;
13250;SDS011;6692;50.710;7.180;2022-08-05T10:15:35;688.87;;;654.50;;
13250;SDS011;6692;50.710;7.180;2022-08-05T10:17:36;689.53;;;654.37;;
13250;SDS011;6692;50.710;7.180;2022-08-05T10:19:36;708.53;;;672.83;;
13250;SDS011;6692;50.710;7.180;2022-08-05T10:21:38;732.50;;;694.37;;
13250;SDS011;6692;50.710;7.180;2022-08-05T10:23:38;707.60;;;671.47;;
13250;SDS011;6692;50.710;7.180;2022-08-05T10:25:39;706.20;;;670.47;;
13250;SDS011;6692;50.710;7.180;2022-08-05T10:27:40;716.30;;;679.67;;
13250;SDS011;6692;50.710;7.180;2022-08-05T10:29:41;717.17;;;680.00;;
13250;SDS011;6692;50.710;7.180;2022-08-05T10:31:42;710.60;;;673.30;;
13250;SDS011;6692;50.710;7.180;2022-08-05T10:33:42;700.97;;;665.73;;
13250;SDS011;6692;50.710;7.180;2022-08-05T10:35:43;678.10;;;644.20;;
13250;SDS011;6692;50.710;7.180;2022-08-05T10:37:44;682.07;;;647.33;;
13250;SDS011;6692;50.710;7.180;2022-08-05T10:39:44;693.27;;;657.87;;
13250;SDS011;6692;50.710;7.180;2022-08-05T10:41:46;713.73;;;676.53;;
13250;SDS011;6692;50.710;7.180;2022-08-05T10:43:53;662.20;;;629.23;;
13250;SDS011;6692;50.710;7.180;2022-08-05T10:45:55;680.67;;;646.40;;
13250;SDS011;6692;50.710;7.180;2022-08-05T10:47:55;694.83;;;659.77;;
13250;SDS011;6692;50.710;7.180;2022-08-05T10:50:04;647.60;;;615.13;;
13250;SDS011;6692;50.710;7.180;2022-08-05T10:52:05;639.47;;;608.27;;
13250;SDS011;6692;50.710;7.180;2022-08-05T10:54:06;669.83;;;636.17;;
13250;SDS011;6692;50.710;7.180;2022-08-05T10:56:09;622.27;;;591.70;;
13250;SDS011;6692;50.710;7.180;2022-08-05T10:58:10;660.37;;;627.20;;
13250;SDS011;6692;50.710;7.180;2022-08-05T11:00:18;637.20;;;606.30;;
13250;SDS011;6692;50.710;7.180;2022-08-05T11:02:19;672.77;;;639.47;;
13250;SDS011;6692;50.710;7.180;2022-08-05T11:04:20;640.80;;;610.67;;
13250;SDS011;6692;50.710;7.180;2022-08-05T11:06:21;613.60;;;585.37;;
13250;SDS011;6692;50.710;7.180;2022-08-05T11:08:22;654.27;;;622.57;;
13250;SDS011;6692;50.710;7.180;2022-08-05T11:10:24;611.60;;;583.13;;
13250;SDS011;6692;50.710;7.180;2022-08-05T11:14:40;609.53;;;581.80;;
13250;SDS011;6692;50.710;7.180;2022-08-05T11:16:41;583.47;;;557.43;;
13250;SDS011;6692;50.710;7.180;2022-08-05T11:18:41;601.17;;;573.83;;
13250;SDS011;6692;50.710;7.180;2022-08-05T11:20:43;577.13;;;551.40;;
13250;SDS011;6692;50.710;7.180;2022-08-05T11:22:45;569.83;;;544.67;;
13250;SDS011;6692;50.710;7.180;2022-08-05T11:25:25;586.07;;;559.97;;
13250;SDS011;6692;50.710;7.180;2022-08-05T11:27:08;556.47;;;532.47;;
13250;SDS011;6692;50.710;7.180;2022-08-05T11:28:52;556.00;;;531.90;;
13250;SDS011;6692;50.710;7.180;2022-08-05T11:33:27;421.30;;;404.87;;
13250;SDS011;6692;50.710;7.180;2022-08-05T11:37:42;450.13;;;432.37;;
13250;SDS011;6692;50.710;7.180;2022-08-05T11:39:46;532.50;;;510.37;;
13250;SDS011;6692;50.710;7.180;2022-08-05T11:41:49;516.63;;;495.00;;
13250;SDS011;6692;50.710;7.180;2022-08-05T11:44:05;497.20;;;476.97;;
13250;SDS011;6692;50.710;7.180;2022-08-05T11:46:04;444.80;;;427.33;;
13250;SDS011;6692;50.710;7.180;2022-08-05T11:48:08;463.27;;;444.73;;
13250;SDS011;6692;50.710;7.180;2022-08-05T11:50:08;478.77;;;459.63;;
13250;SDS011;6692;50.710;7.180;2022-08-05T11:52:09;482.93;;;463.37;;